KIWD Weather

FAA AWOS (Automated Weather Observing System)

Weather observations for the last 3 days click here.

KIWD

METAR
KIWD 220956Z AUTO 00000KT 7SM FEW002 OVC019 18/18 A2982 RMK AO2 SLP090 T01780178
KIWD 220951Z AUTO 25003KT 8SM SCT002 OVC019 18/18 A2982 RMK AO2
KIWD 220856Z AUTO 21003KT 4SM BR OVC002 18/18 A2982 RMK AO2 SLP091 T01830178 51014
KIWD 220845Z AUTO 00000KT 3SM BR OVC002 18/18 A2983 RMK AO2
KIWD 220838Z AUTO 31003KT 1 1/4SM BR OVC002 18/18 A2983 RMK AO2 VIS 1/2V5
KIWD 220835Z AUTO 32003KT 3/4SM BR OVC002 18/18 A2983 RMK AO2 RVRNO
TAF
KIWD 220900Z 2209/2306 13003KT 6SM BR OVC002 FM221300 VRB03KT P6SM VCSH BKN015 FM221600 VRB03KT P6SM BKN020 FM221800 VRB03KT P6SM VCSH BKN025 FM222000 32005KT P6SM VCSH BKN040 FM230300 VRB03KT P6SM BKN025